Time;durP1;ratioP1;P1;durP2;ratioP2;P2;SDS_P1;SDS_P2;PMS_P1;PMS_P2;Temp;Humidity;BMP_temperature;BMP_pressure;BME280_temperature;BME280_humidity;BME280_pressure;Samples;Min_cycle;Max_cycle;Signal;HPM_P1;HPM_P2
2022/03/10 17:50:24;;;;;;;;;;;;;;;;;;5075920;28;19935;-56
2022/03/10 17:52:50;;;;;;;;;;;;;;;;;;5080676;28;19936;-57
2022/03/10 17:55:16;;;;;;;;;;;;;;;;;;5081489;28;19920;-56
2022/03/10 17:57:41;;;;;;;;;;;;;;;;;;5085015;28;20000;-54
2022/03/10 18:00:07;;;;;;;;;;;;;;;;;;5069066;28;19921;-57
2022/03/10 18:02:33;;;;;;;;;;;;;;;;;;5083558;28;19913;-55
2022/03/10 19:45:38;;;;;;;13.50;7.57;;;20.40;37.00;;;;;;5085190;27;20449;-50
2022/03/10 19:48:05;;;;;;;18.23;8.55;;;21.50;35.10;;;;;;5062494;28;20058;-48
2022/03/10 19:50:30;;;;;;;13.13;8.45;;;21.50;35.00;;;;;;5064379;28;20032;-47
2022/03/10 19:52:58;;;;;;;15.00;8.00;;;21.60;34.40;;;;;;5053838;28;20430;-56
2022/03/10 19:55:23;;;;;;;15.48;8.55;;;21.60;34.40;;;;;;5061939;28;20029;-52
2022/03/10 19:57:51;;;;;;;15.45;8.18;;;;;;;;;;5082578;22;20563;-54
2022/03/10 20:00:19;;;;;;;17.50;8.57;;;21.60;34.00;;;;;;5045598;28;20104;-47
2022/03/10 20:02:45;;;;;;;15.20;7.72;;;21.70;34.20;;;;;;5034357;28;20083;-51
2022/03/10 20:05:11;;;;;;;16.08;8.40;;;21.70;34.40;;;;;;5045127;28;20370;-44
2022/03/10 20:07:37;;;;;;;13.15;7.75;;;21.70;34.10;;;;;;5047201;28;20516;-54
2022/03/10 20:10:04;;;;;;;12.23;7.80;;;21.60;33.90;;;;;;5047282;28;20029;-45
2022/03/10 20:12:32;;;;;;;12.23;8.00;;;21.60;34.30;;;;;;5040298;28;20026;-43
2022/03/10 20:14:59;;;;;;;15.18;7.68;;;;;;;;;;5045123;28;20900;-45
2022/03/10 20:17:28;;;;;;;13.85;7.93;;;21.60;33.30;;;;;;5040083;28;20036;-53
2022/03/10 20:19:54;;;;;;;12.20;7.40;;;21.60;33.80;;;;;;5046030;28;20131;-48
2022/03/10 20:22:20;;;;;;;14.35;7.68;;;21.60;34.20;;;;;;5044708;28;20033;-46
2022/03/10 20:24:46;;;;;;;16.97;8.40;;;21.50;34.10;;;;;;5044359;28;20435;-50
2022/03/10 20:27:12;;;;;;;17.02;7.50;;;21.50;34.40;;;;;;5050485;28;20326;-51
2022/03/10 20:29:38;;;;;;;11.07;7.05;;;;;;;;;;5043192;28;20468;-49
2022/03/10 20:32:06;;;;;;;12.80;7.03;;;21.50;33.60;;;;;;5047604;28;20091;-52
2022/03/10 20:34:37;;;;;;;11.15;7.40;;;21.50;34.20;;;;;;5036437;28;20029;-53
2022/03/10 20:37:03;;;;;;;12.32;7.60;;;;;;;;;;5041380;28;20044;-52
2022/03/10 20:39:29;;;;;;;11.10;6.57;;;;;;;;;;5050504;28;20437;-55
2022/03/10 20:41:56;;;;;;;11.82;7.22;;;;;;;;;;5045764;28;20036;-50
2022/03/10 20:44:22;;;;;;;11.15;7.28;;;;;;;;;;5045163;28;20059;-52
2022/03/10 20:46:48;;;;;;;13.30;7.43;;;;;;;;;;5042431;28;20100;-55
2022/03/10 20:49:14;;;;;;;12.88;7.68;;;;;;;;;;5046237;28;20025;-58
2022/03/10 20:51:40;;;;;;;14.80;7.88;;;;;;;;;;5046955;28;20037;-54
2022/03/10 20:54:06;;;;;;;11.02;7.57;;;;;;;;;;5042894;28;20030;-54
2022/03/10 20:56:32;;;;;;;15.75;8.93;;;;;;;;;;5026924;28;20029;-54
2022/03/10 20:58:59;;;;;;;19.00;9.35;;;;;;;;;;5031374;28;20030;-52
2022/03/10 21:01:24;;;;;;;17.10;9.90;;;;;;;;;;5018933;28;20460;-55
2022/03/10 21:03:52;;;;;;;16.30;9.35;;;;;;;;;;5029300;28;20111;-60
2022/03/10 21:06:18;;;;;;;16.02;9.23;;;;;;;;;;5027026;28;20036;-55
2022/03/10 21:08:45;;;;;;;19.08;8.88;;;;;;;;;;5030395;28;20496;-59
2022/03/10 21:11:11;;;;;;;16.67;9.18;;;21.50;36.00;;;;;;5031415;28;20022;-55
2022/03/10 21:13:38;;;;;;;20.40;9.50;;;22.10;37.80;;;;;;5031778;28;20052;-60
2022/03/10 21:16:04;;;;;;;15.48;8.38;;;;;;;;;;5023176;28;20034;-58
2022/03/10 21:18:30;;;;;;;19.77;8.48;;;;;;;;;;5024398;28;20044;-59
2022/03/10 21:20:56;;;;;;;17.70;8.38;;;;;;;;;;5023597;28;20040;-57
2022/03/10 21:23:22;;;;;;;16.35;7.93;;;;;;;;;;5018144;28;20033;-54
2022/03/10 21:25:48;;;;;;;18.33;8.52;;;;;;;;;;5032265;28;20486;-58
2022/03/10 21:28:14;;;;;;;15.02;7.82;;;;;;;;;;5031038;28;20029;-56
2022/03/10 21:30:40;;;;;;;15.93;8.43;;;22.20;37.10;;;;;;5031297;28;20469;-56
2022/03/10 21:33:09;;;;;;;14.95;8.25;;;22.30;35.20;;;;;;5031857;28;20037;-56
2022/03/10 21:35:35;;;;;;;12.95;7.38;;;22.10;33.90;;;;;;5027823;28;20450;-56
2022/03/10 21:38:00;;;;;;;15.75;8.05;;;22.00;33.40;;;;;;5024327;28;20061;-59
2022/03/10 21:40:26;;;;;;;11.00;7.47;;;21.90;32.00;;;;;;5029172;28;20401;-58
2022/03/10 21:42:52;;;;;;;13.95;7.88;;;21.80;32.50;;;;;;5024781;28;20029;-58
2022/03/10 21:45:18;;;;;;;13.88;7.35;;;21.80;32.40;;;;;;5029843;28;20140;-56
2022/03/10 21:47:44;;;;;;;13.32;7.80;;;21.80;32.90;;;;;;5029614;28;20037;-57
2022/03/10 21:50:10;;;;;;;14.40;7.93;;;21.70;32.30;;;;;;5027602;28;20022;-58
2022/03/10 21:52:36;;;;;;;15.93;9.07;;;21.70;32.10;;;;;;5028025;28;20028;-58
2022/03/10 21:55:06;;;;;;;10.75;7.53;;;21.70;32.10;;;;;;5025765;28;20033;-60
2022/03/10 21:57:32;;;;;;;14.55;7.45;;;21.70;31.80;;;;;;5028884;28;20036;-58
2022/03/10 21:59:58;;;;;;;15.18;7.72;;;21.60;31.50;;;;;;5031431;28;20109;-59
2022/03/10 22:02:23;;;;;;;13.88;7.45;;;21.60;31.20;;;;;;5025952;28;20018;-59
2022/03/10 22:04:49;;;;;;;14.45;7.28;;;21.60;31.00;;;;;;5020849;28;20073;-60
2022/03/10 22:07:15;;;;;;;11.68;7.40;;;21.60;31.00;;;;;;5025511;28;20029;-58
2022/03/10 22:09:41;;;;;;;13.57;7.57;;;21.50;30.90;;;;;;5028966;28;20025;-59
2022/03/10 22:12:07;;;;;;;12.13;7.60;;;21.50;30.70;;;;;;5030591;28;20040;-58
2022/03/10 22:14:33;;;;;;;11.82;6.97;;;21.50;30.50;;;;;;5030990;28;20067;-60
2022/03/10 22:16:58;;;;;;;13.05;7.43;;;21.50;30.20;;;;;;5029337;28;20309;-57
2022/03/10 22:19:24;;;;;;;14.65;7.72;;;21.40;30.10;;;;;;5024225;28;20026;-57
2022/03/10 22:21:49;;;;;;;15.73;7.90;;;21.30;30.00;;;;;;5024625;28;20380;-58
2022/03/10 22:24:15;;;;;;;11.65;7.38;;;21.30;29.80;;;;;;5031690;28;20022;-59
2022/03/10 22:26:41;;;;;;;11.90;7.85;;;21.30;29.80;;;;;;5028512;28;20057;-59
2022/03/10 22:29:06;;;;;;;23.95;7.60;;;21.30;29.80;;;;;;5028970;28;20036;-56
2022/03/10 22:31:33;;;;;;;15.60;7.78;;;21.30;30.50;;;;;;5020807;28;20443;-56
